createdAt,value
2018-03-23T00:01:38.537Z,30.58
2018-03-23T00:04:05.984Z,31.63
2018-03-23T00:06:33.457Z,38.00
2018-03-23T00:09:00.907Z,30.98
2018-03-23T00:11:28.378Z,30.08
2018-03-23T00:13:55.983Z,29.80
2018-03-23T00:16:23.440Z,30.85
2018-03-23T00:18:50.964Z,27.87
2018-03-23T00:21:19.997Z,29.35
2018-03-23T00:23:52.093Z,30.53
2018-03-23T00:26:19.817Z,33.45
2018-03-23T00:28:47.282Z,31.10
2018-03-23T00:31:14.737Z,28.13
2018-03-23T00:33:42.221Z,26.17
2018-03-23T00:36:09.671Z,30.65
2018-03-23T00:38:37.134Z,28.50
2018-03-23T00:41:04.781Z,30.37
2018-03-23T00:43:33.159Z,29.55
2018-03-23T00:46:03.478Z,28.23
2018-03-23T00:48:30.964Z,28.07
2018-03-23T00:50:58.729Z,28.50
2018-03-23T00:53:26.373Z,28.27
2018-03-23T00:55:53.944Z,31.70
2018-03-23T00:58:21.385Z,27.87
2018-03-23T01:00:49.060Z,26.63
2018-03-23T01:03:17.230Z,26.35
2018-03-23T01:05:44.717Z,29.75
2018-03-23T01:08:12.157Z,25.30
2018-03-23T01:10:39.638Z,26.83
2018-03-23T01:13:07.116Z,32.20
2018-03-23T01:15:34.560Z,26.97
2018-03-23T01:18:02.031Z,23.83
2018-03-23T01:20:29.502Z,27.90
2018-03-23T01:22:57.209Z,29.17
2018-03-23T01:25:28.657Z,21.70
2018-03-23T01:27:56.094Z,25.67
2018-03-23T01:30:23.875Z,21.10
2018-03-23T01:32:51.325Z,23.67
2018-03-23T01:35:18.809Z,26.60
2018-03-23T01:37:46.282Z,29.50
2018-03-23T01:40:17.701Z,25.77
2018-03-23T01:42:45.372Z,25.77
2018-03-23T01:45:12.841Z,22.27
2018-03-23T01:47:40.348Z,24.27
2018-03-23T01:50:07.842Z,24.07
2018-03-23T01:52:35.285Z,23.33
2018-03-23T01:55:06.980Z,18.63
2018-03-23T01:57:35.421Z,22.10
2018-03-23T02:00:03.067Z,23.57
2018-03-23T02:02:30.522Z,21.93
2018-03-23T02:04:57.971Z,20.60
2018-03-23T02:07:25.461Z,24.10
2018-03-23T02:09:52.934Z,23.35
2018-03-23T02:12:20.368Z,23.50
2018-03-23T02:14:48.773Z,23.38
2018-03-23T02:17:16.986Z,18.40
2018-03-23T02:19:44.698Z,24.83
2018-03-23T02:22:13.067Z,24.10
2018-03-23T02:24:40.540Z,23.35
2018-03-23T02:27:08.312Z,22.13
2018-03-23T02:29:36.530Z,30.90
2018-03-23T02:32:03.997Z,24.07
2018-03-23T02:34:33.726Z,23.98
2018-03-23T02:37:01.194Z,21.70
2018-03-23T02:39:28.681Z,27.65
2018-03-23T02:42:01.964Z,22.85
2018-03-23T02:44:29.398Z,22.20
2018-03-23T02:46:58.359Z,27.33
2018-03-23T02:49:25.828Z,22.97
2018-03-23T02:51:53.617Z,26.87
2018-03-23T02:54:21.057Z,24.00
2018-03-23T02:56:52.522Z,31.67
2018-03-23T02:59:19.988Z,25.57
2018-03-23T03:01:47.437Z,28.27
2018-03-23T03:04:14.914Z,36.00
2018-03-23T03:06:42.376Z,34.27
2018-03-23T03:09:10.301Z,37.85
2018-03-23T03:11:37.801Z,31.33
2018-03-23T03:14:07.047Z,38.37
2018-03-23T03:16:34.497Z,30.90
2018-03-23T03:19:01.960Z,32.53
2018-03-23T03:21:29.409Z,29.42
2018-03-23T03:23:57.004Z,33.17
2018-03-23T03:26:28.317Z,39.67
2018-03-23T03:28:59.881Z,47.08
2018-03-23T03:31:28.213Z,41.63
2018-03-23T03:33:57.273Z,38.72
2018-03-23T03:36:24.741Z,44.90
2018-03-23T03:38:52.202Z,33.87
2018-03-23T03:41:22.101Z,34.55
2018-03-23T03:43:49.585Z,36.00
2018-03-23T03:46:17.074Z,39.20
2018-03-23T03:48:44.683Z,36.03
2018-03-23T03:51:12.165Z,41.50
2018-03-23T03:53:40.337Z,34.20
2018-03-23T03:56:07.811Z,37.75
2018-03-23T03:58:35.265Z,32.00
2018-03-23T04:01:02.741Z,36.85
2018-03-23T04:03:30.215Z,38.63
2018-03-23T04:05:57.708Z,34.67
2018-03-23T04:08:25.183Z,36.10
2018-03-23T04:10:54.346Z,40.60
2018-03-23T04:13:21.801Z,41.53
2018-03-23T04:15:49.593Z,36.23
2018-03-23T04:18:17.053Z,39.80
2018-03-23T04:20:44.527Z,40.30
2018-03-23T04:23:12.019Z,43.47
2018-03-23T04:25:39.949Z,40.93
2018-03-23T04:28:11.782Z,46.92
2018-03-23T04:30:39.269Z,49.97
2018-03-23T04:33:06.709Z,32.77
2018-03-23T04:35:34.441Z,35.80
2018-03-23T04:38:03.598Z,40.83
2018-03-23T04:40:31.043Z,39.33
2018-03-23T04:43:03.377Z,40.22
2018-03-23T04:45:31.516Z,38.15
2018-03-23T04:47:59.125Z,43.13
2018-03-23T04:50:26.564Z,47.57
2018-03-23T04:52:54.027Z,47.53
2018-03-23T04:55:21.505Z,42.53
2018-03-23T04:57:48.949Z,39.72
2018-03-23T05:00:18.850Z,45.72
2018-03-23T05:02:47.255Z,51.60
2018-03-23T05:05:14.724Z,41.97
2018-03-23T05:07:42.931Z,45.70
2018-03-23T05:10:10.397Z,47.23
2018-03-23T05:12:37.898Z,42.63
2018-03-23T05:15:05.369Z,40.12
2018-03-23T05:17:32.817Z,43.17
2018-03-23T05:20:01.953Z,48.10
2018-03-23T05:22:29.420Z,50.27
2018-03-23T05:24:56.866Z,49.20
2018-03-23T05:27:24.349Z,45.63
2018-03-23T05:29:51.810Z,43.67
2018-03-23T05:32:19.264Z,51.70
2018-03-23T05:34:46.925Z,35.57
2018-03-23T05:37:14.847Z,49.95
2018-03-23T05:39:42.292Z,50.00
2018-03-23T05:42:10.539Z,55.58
2018-03-23T05:44:42.605Z,47.65
2018-03-23T05:47:10.049Z,50.07
2018-03-23T05:49:38.362Z,49.83
2018-03-23T05:52:05.838Z,55.20
2018-03-23T05:54:33.317Z,57.47
2018-03-23T05:57:00.811Z,53.42
2018-03-23T05:59:28.952Z,55.58
2018-03-23T06:01:56.478Z,56.63
2018-03-23T06:04:23.992Z,55.10
2018-03-23T06:06:51.488Z,52.57
2018-03-23T06:09:19.018Z,57.00
2018-03-23T06:11:46.453Z,60.73
2018-03-23T06:14:18.524Z,61.87
2018-03-23T06:16:45.977Z,58.80
2018-03-23T06:19:13.450Z,51.58
2018-03-23T06:21:41.093Z,47.57
2018-03-23T06:24:08.554Z,55.17
2018-03-23T06:26:36.029Z,61.10
2018-03-23T06:29:03.505Z,50.70
2018-03-23T06:31:30.946Z,57.60
2018-03-23T06:33:58.454Z,56.70
2018-03-23T06:36:26.616Z,56.94
2018-03-23T06:38:54.108Z,60.37
2018-03-23T06:41:21.794Z,55.83
2018-03-23T06:43:49.304Z,53.50
2018-03-23T06:46:16.766Z,54.87
2018-03-23T06:48:44.208Z,54.07
2018-03-23T06:51:11.662Z,63.65
2018-03-23T06:53:40.793Z,55.63
2018-03-23T06:56:08.269Z,48.13
2018-03-23T06:58:35.737Z,53.53
2018-03-23T07:01:03.216Z,54.78
2018-03-23T07:03:30.713Z,48.30
2018-03-23T07:05:58.164Z,44.30
2018-03-23T07:08:25.647Z,48.30
2018-03-23T07:10:54.199Z,45.20
2018-03-23T07:13:21.790Z,41.57
2018-03-23T07:15:49.334Z,34.83
2018-03-23T07:18:16.829Z,34.28
2018-03-23T07:20:44.474Z,39.77
2018-03-23T07:23:11.912Z,36.17
2018-03-23T07:25:39.365Z,34.50
2018-03-23T07:28:07.674Z,40.30
2018-03-23T07:30:42.090Z,33.20
2018-03-23T07:33:09.680Z,40.03
2018-03-23T07:35:37.133Z,44.67
2018-03-23T07:38:04.606Z,41.63
2018-03-23T07:40:32.079Z,39.03
2018-03-23T07:43:00.488Z,40.17
2018-03-23T07:45:28.065Z,38.60
2018-03-23T07:47:55.514Z,40.92
2018-03-23T07:50:22.976Z,39.78
2018-03-23T07:52:50.417Z,40.93
2018-03-23T07:55:18.090Z,43.53
2018-03-23T07:57:45.551Z,36.30
2018-03-23T08:00:13.021Z,41.30
2018-03-23T08:02:41.298Z,37.25
2018-03-23T08:05:08.776Z,33.10
2018-03-23T08:07:36.245Z,37.63
2018-03-23T08:10:03.726Z,38.10
2018-03-23T08:12:31.202Z,29.63
2018-03-23T08:14:58.658Z,30.70
2018-03-23T08:17:26.124Z,39.43
2018-03-23T08:19:53.596Z,40.07
2018-03-23T08:22:21.342Z,35.75
2018-03-23T08:24:49.293Z,37.35
2018-03-23T08:27:16.760Z,32.33
2018-03-23T08:29:44.229Z,42.70
2018-03-23T08:32:19.485Z,39.73
2018-03-23T08:34:46.956Z,32.87
2018-03-23T08:37:14.901Z,35.92
2018-03-23T08:39:42.617Z,32.20
2018-03-23T08:42:10.210Z,40.70
2018-03-23T08:44:37.736Z,41.97
2018-03-23T08:47:05.187Z,45.80
2018-03-23T08:49:32.761Z,47.20
2018-03-23T08:52:00.245Z,38.87
2018-03-23T08:54:28.329Z,46.90
2018-03-23T08:56:55.793Z,44.80
2018-03-23T08:59:24.018Z,46.42
2018-03-23T09:01:51.709Z,42.00
2018-03-23T09:04:23.472Z,40.43
2018-03-23T09:06:50.949Z,38.63
2018-03-23T09:09:18.388Z,49.27
2018-03-23T09:11:45.857Z,41.17
2018-03-23T09:14:13.342Z,34.25
2018-03-23T09:16:40.822Z,35.50
2018-03-23T09:19:08.449Z,39.00
2018-03-23T09:21:35.884Z,43.40
2018-03-23T09:24:03.361Z,41.58
2018-03-23T09:26:30.801Z,43.00
2018-03-23T09:28:58.267Z,43.40
2018-03-23T09:31:26.374Z,40.97
2018-03-23T09:33:56.920Z,53.78
2018-03-23T09:36:24.389Z,47.03
2018-03-23T09:38:51.855Z,56.37
2018-03-23T09:41:19.325Z,47.80
2018-03-23T09:43:46.814Z,50.97
2018-03-23T09:46:14.273Z,53.67
2018-03-23T09:48:41.969Z,46.37
2018-03-23T09:51:10.337Z,40.05
2018-03-23T09:53:37.853Z,50.83
2018-03-23T09:56:05.280Z,49.77
2018-03-23T09:58:32.745Z,56.25
2018-03-23T10:01:00.510Z,54.90
2018-03-23T10:03:27.971Z,50.73
2018-03-23T10:05:56.186Z,47.97
2018-03-23T10:08:23.742Z,58.13
2018-03-23T10:10:51.215Z,43.27
2018-03-23T10:13:18.706Z,53.37
2018-03-23T10:15:46.136Z,49.60
2018-03-23T10:18:16.681Z,42.90
2018-03-23T10:20:44.173Z,54.40
2018-03-23T10:23:11.598Z,53.90
2018-03-23T10:25:39.054Z,52.88
2018-03-23T10:28:06.829Z,49.67
2018-03-23T10:30:34.285Z,49.53
2018-03-23T10:33:02.950Z,46.30
2018-03-23T10:35:30.521Z,44.65
2018-03-23T10:37:57.920Z,45.93
2018-03-23T10:40:25.442Z,55.50
2018-03-23T10:42:52.984Z,44.60
2018-03-23T10:45:21.225Z,41.63
2018-03-23T10:47:48.673Z,43.35
2018-03-23T10:50:16.414Z,44.23
2018-03-23T10:52:44.044Z,48.90
2018-03-23T10:55:11.545Z,48.50
2018-03-23T10:57:39.001Z,49.57
2018-03-23T11:00:06.810Z,37.67
2018-03-23T11:02:38.481Z,52.13
2018-03-23T11:05:06.306Z,54.63
2018-03-23T11:07:34.575Z,52.42
2018-03-23T11:10:02.804Z,47.50
2018-03-23T11:12:30.253Z,48.13
2018-03-23T11:14:57.725Z,39.00
2018-03-23T11:17:25.238Z,44.37
2018-03-23T11:19:56.945Z,47.47
2018-03-23T11:22:25.919Z,51.03
2018-03-23T11:24:53.390Z,57.80
2018-03-23T11:27:20.836Z,41.75
2018-03-23T11:29:48.313Z,39.10
2018-03-23T11:32:15.904Z,48.60
2018-03-23T11:34:47.787Z,45.38
2018-03-23T11:37:15.229Z,45.97
2018-03-23T11:39:42.704Z,41.65
2018-03-23T11:42:10.149Z,43.20
2018-03-23T11:44:37.828Z,38.23
2018-03-23T11:47:05.261Z,37.67
2018-03-23T11:49:34.617Z,45.05
2018-03-23T11:52:02.088Z,37.55
2018-03-23T11:54:29.560Z,38.93
2018-03-23T11:56:58.700Z,39.27
2018-03-23T11:59:26.177Z,42.33
2018-03-23T12:01:53.638Z,38.13
2018-03-23T12:04:21.115Z,39.08
2018-03-23T12:06:48.769Z,43.20
2018-03-23T12:09:16.213Z,40.77
2018-03-23T12:11:43.682Z,36.83
2018-03-23T12:14:11.146Z,40.48
2018-03-23T12:16:38.622Z,36.23
2018-03-23T12:19:06.862Z,38.10
2018-03-23T12:21:34.352Z,37.63
2018-03-23T12:24:01.795Z,45.00
2018-03-23T12:26:29.238Z,41.23
2018-03-23T12:28:56.749Z,36.65
2018-03-23T12:31:24.262Z,37.83
2018-03-23T12:33:51.713Z,37.92
2018-03-23T12:36:19.182Z,38.80
2018-03-23T12:38:46.649Z,36.78
2018-03-23T12:41:16.590Z,42.30
2018-03-23T12:43:44.046Z,36.17
2018-03-23T12:46:11.667Z,36.88
2018-03-23T12:48:39.752Z,41.88
2018-03-23T12:51:12.058Z,36.90
2018-03-23T12:53:40.122Z,34.53
2018-03-23T12:56:07.580Z,38.10
2018-03-23T12:58:35.027Z,36.00
2018-03-23T13:01:03.276Z,34.00
2018-03-23T13:03:30.730Z,36.40
2018-03-23T13:06:00.657Z,38.83
2018-03-23T13:08:28.070Z,41.88
2018-03-23T13:10:55.517Z,35.13
2018-03-23T13:13:22.969Z,33.73
2018-03-23T13:15:50.489Z,34.33
2018-03-23T13:18:18.793Z,51.75
2018-03-23T13:20:46.261Z,38.17
2018-03-23T13:23:17.277Z,37.17
2018-03-23T13:25:45.722Z,29.90
2018-03-23T13:28:13.664Z,31.98
2018-03-23T13:30:41.349Z,32.73
2018-03-23T13:33:08.825Z,35.03
2018-03-23T13:35:36.534Z,33.67
2018-03-23T13:38:07.413Z,36.17
2018-03-23T13:40:35.108Z,37.63
2018-03-23T13:43:02.983Z,30.84
2018-03-23T13:45:30.572Z,35.03
2018-03-23T13:47:58.016Z,32.10
2018-03-23T13:50:25.519Z,33.55
2018-03-23T13:52:53.003Z,38.50
2018-03-23T13:55:20.462Z,29.53
2018-03-23T13:57:47.938Z,37.95
2018-03-23T14:00:21.168Z,32.30
2018-03-23T14:02:48.665Z,32.90
2018-03-23T14:05:17.728Z,28.40
2018-03-23T14:07:47.604Z,30.73
2018-03-23T14:10:15.055Z,33.50
2018-03-23T14:12:42.517Z,33.73
2018-03-23T14:15:09.961Z,40.40
2018-03-23T14:17:37.477Z,30.90
2018-03-23T14:20:04.894Z,37.57
2018-03-23T14:22:35.465Z,34.80
2018-03-23T14:25:04.408Z,42.62
2018-03-23T14:27:31.912Z,38.97
2018-03-23T14:29:59.665Z,35.83
2018-03-23T14:32:27.330Z,31.73
2018-03-23T14:34:55.736Z,29.80
2018-03-23T14:37:23.189Z,38.80
2018-03-23T14:39:50.664Z,35.97
2018-03-23T14:42:18.138Z,36.90
2018-03-23T14:44:45.645Z,37.40
2018-03-23T14:47:13.113Z,37.55
2018-03-23T14:49:40.576Z,31.03
2018-03-23T14:52:08.023Z,27.13
2018-03-23T14:54:35.488Z,23.70
2018-03-23T14:57:02.936Z,29.20
2018-03-23T14:59:34.341Z,26.83
2018-03-23T15:02:01.844Z,33.60
2018-03-23T15:04:29.293Z,26.12
2018-03-23T15:06:56.745Z,23.63
2018-03-23T15:09:25.726Z,30.65
2018-03-23T15:11:54.576Z,22.85
2018-03-23T15:14:22.056Z,23.13
2018-03-23T15:16:49.559Z,34.90
2018-03-23T15:19:18.716Z,33.95
2018-03-23T15:21:46.213Z,32.20
2018-03-23T15:24:17.857Z,25.80
2018-03-23T15:26:45.306Z,26.43
2018-03-23T15:29:13.169Z,28.98
2018-03-23T15:31:40.624Z,33.92
2018-03-23T15:34:08.094Z,31.65
2018-03-23T15:36:35.557Z,41.63
2018-03-23T15:39:09.054Z,32.47
2018-03-23T15:41:36.506Z,39.37
2018-03-23T15:44:04.028Z,32.60
2018-03-23T15:46:31.510Z,28.23
2018-03-23T15:48:59.094Z,26.48
2018-03-23T15:51:27.582Z,27.57
2018-03-23T15:53:55.021Z,32.63
2018-03-23T15:56:22.521Z,35.17
2018-03-23T15:58:50.127Z,29.70
2018-03-23T16:01:17.584Z,36.72
2018-03-23T16:03:45.166Z,32.53
2018-03-23T16:06:12.621Z,30.33
2018-03-23T16:08:41.036Z,29.65
2018-03-23T16:11:08.482Z,31.55
2018-03-23T16:13:36.061Z,32.40
2018-03-23T16:16:03.516Z,32.72
2018-03-23T16:18:31.201Z,30.33
2018-03-23T16:20:58.600Z,29.52
2018-03-23T16:23:26.201Z,30.73
2018-03-23T16:25:53.638Z,33.83
2018-03-23T16:28:21.133Z,30.83
2018-03-23T16:30:49.065Z,35.30
2018-03-23T16:33:16.524Z,30.48
2018-03-23T16:35:43.964Z,28.33
2018-03-23T16:38:12.221Z,37.23
2018-03-23T16:40:39.668Z,35.30
2018-03-23T16:43:07.149Z,30.60
2018-03-23T16:45:35.375Z,40.10
2018-03-23T16:48:02.949Z,39.85
2018-03-23T16:50:30.480Z,39.97
2018-03-23T16:52:57.953Z,29.93
2018-03-23T16:55:28.553Z,33.90
2018-03-23T16:57:56.046Z,36.58
2018-03-23T17:00:23.505Z,36.97
2018-03-23T17:02:50.971Z,32.63
2018-03-23T17:05:18.443Z,34.63
2018-03-23T17:07:45.913Z,42.70
2018-03-23T17:10:13.357Z,34.40
2018-03-23T17:12:43.131Z,37.35
2018-03-23T17:15:11.562Z,39.40
2018-03-23T17:17:39.013Z,36.08
2018-03-23T17:20:06.878Z,32.37
2018-03-23T17:22:34.446Z,35.20
2018-03-23T17:25:01.910Z,32.40
2018-03-23T17:27:29.373Z,29.10
2018-03-23T17:29:56.903Z,31.13
2018-03-23T17:32:24.655Z,36.00
2018-03-23T17:34:52.285Z,43.83
2018-03-23T17:37:20.125Z,39.00
2018-03-23T17:39:47.595Z,35.57
2018-03-23T17:42:15.334Z,37.00
2018-03-23T17:44:42.801Z,34.40
2018-03-23T17:47:11.041Z,34.10
2018-03-23T17:49:39.791Z,33.35
2018-03-23T17:52:07.283Z,36.97
2018-03-23T17:54:34.766Z,43.80
2018-03-23T17:57:02.851Z,48.13
2018-03-23T17:59:30.297Z,39.50
2018-03-23T18:01:59.333Z,42.70
2018-03-23T18:04:26.822Z,38.50
2018-03-23T18:06:54.448Z,40.47
2018-03-23T18:09:22.974Z,42.33
2018-03-23T18:11:50.626Z,37.00
2018-03-23T18:14:18.073Z,35.83
2018-03-23T18:16:45.548Z,45.40
2018-03-23T18:19:13.405Z,33.20
2018-03-23T18:21:41.038Z,34.20
2018-03-23T18:24:08.501Z,36.80
2018-03-23T18:26:40.377Z,38.65
2018-03-23T18:29:07.825Z,39.10
2018-03-23T18:31:35.314Z,38.30
2018-03-23T18:34:02.782Z,37.87
2018-03-23T18:36:30.218Z,38.10
2018-03-23T18:38:57.716Z,40.05
2018-03-23T18:41:25.176Z,41.83
2018-03-23T18:43:52.649Z,43.00
2018-03-23T18:46:21.458Z,37.60
2018-03-23T18:48:48.932Z,44.60
2018-03-23T18:51:16.389Z,40.37
2018-03-23T18:53:43.865Z,46.80
2018-03-23T18:56:11.332Z,41.27
2018-03-23T18:58:40.344Z,44.78
2018-03-23T19:01:07.858Z,39.40
2018-03-23T19:03:35.325Z,38.47
2018-03-23T19:06:02.936Z,42.70
2018-03-23T19:08:30.432Z,45.25
2018-03-23T19:10:58.829Z,37.23
2018-03-23T19:13:26.513Z,39.97
2018-03-23T19:15:54.837Z,38.13
2018-03-23T19:18:22.370Z,39.40
2018-03-23T19:20:49.964Z,37.55
2018-03-23T19:23:18.136Z,39.90
2018-03-23T19:25:45.585Z,41.53
2018-03-23T19:28:17.565Z,39.10
2018-03-23T19:30:45.009Z,44.23
2018-03-23T19:33:14.000Z,40.58
2018-03-23T19:35:41.673Z,48.30
2018-03-23T19:38:09.926Z,37.60
2018-03-23T19:40:37.793Z,43.78
2018-03-23T19:43:05.196Z,37.85
2018-03-23T19:45:32.663Z,41.47
2018-03-23T19:48:00.355Z,42.73
2018-03-23T19:50:27.913Z,49.00
2018-03-23T19:52:55.373Z,45.03
2018-03-23T19:55:22.903Z,41.57
2018-03-23T19:57:50.296Z,40.25
2018-03-23T20:00:17.742Z,37.27
2018-03-23T20:02:46.257Z,36.10
2018-03-23T20:05:13.617Z,36.60
2018-03-23T20:07:41.081Z,38.57
2018-03-23T20:10:08.530Z,41.87
2018-03-23T20:12:36.020Z,39.90
2018-03-23T20:15:03.456Z,40.53
2018-03-23T20:17:36.544Z,39.50
2018-03-23T20:20:09.554Z,37.83
2018-03-23T20:22:37.016Z,38.57
2018-03-23T20:25:04.470Z,44.07
2018-03-23T20:27:37.529Z,42.17
2018-03-23T20:30:05.178Z,41.60
2018-03-23T20:32:32.805Z,46.17
2018-03-23T20:35:01.955Z,37.80
2018-03-23T20:37:29.520Z,43.40
2018-03-23T20:39:57.112Z,43.23
2018-03-23T20:42:24.583Z,49.05
2018-03-23T20:44:52.046Z,62.97
2018-03-23T20:47:19.528Z,50.50
2018-03-23T20:49:47.065Z,42.70
2018-03-23T20:52:15.383Z,48.50
2018-03-23T20:54:42.857Z,48.67
2018-03-23T20:57:10.471Z,49.20
2018-03-23T20:59:37.910Z,50.60
2018-03-23T21:02:05.373Z,47.90
2018-03-23T21:04:33.811Z,46.50
2018-03-23T21:07:02.056Z,46.90
2018-03-23T21:09:29.508Z,48.93
2018-03-23T21:11:57.048Z,38.70
2018-03-23T21:14:24.513Z,46.08
2018-03-23T21:16:51.981Z,41.57
2018-03-23T21:19:19.450Z,42.13
2018-03-23T21:21:46.909Z,40.03
2018-03-23T21:24:14.387Z,41.83
2018-03-23T21:26:42.758Z,47.60
2018-03-23T21:29:10.228Z,49.60
2018-03-23T21:31:37.709Z,45.38
2018-03-23T21:34:05.153Z,46.67
2018-03-23T21:36:32.625Z,43.80
2018-03-23T21:39:00.085Z,45.67
2018-03-23T21:41:27.564Z,42.87
2018-03-23T21:43:55.021Z,44.30
2018-03-23T21:46:22.493Z,43.38
2018-03-23T21:48:52.381Z,46.37
2018-03-23T21:51:19.833Z,42.42
2018-03-23T21:53:47.317Z,43.60
2018-03-23T21:56:15.797Z,42.35
2018-03-23T21:58:43.270Z,47.05
2018-03-23T22:01:10.741Z,38.60
2018-03-23T22:03:38.989Z,47.37
2018-03-23T22:06:06.493Z,43.35
2018-03-23T22:08:33.941Z,50.45
2018-03-23T22:11:01.440Z,41.30
2018-03-23T22:13:29.516Z,40.80
2018-03-23T22:15:56.921Z,41.70
2018-03-23T22:18:24.412Z,41.77
2018-03-23T22:20:52.009Z,39.78
2018-03-23T22:23:19.470Z,44.53
2018-03-23T22:25:46.938Z,36.87
2018-03-23T22:28:14.390Z,42.20
2018-03-23T22:30:46.772Z,33.50
2018-03-23T22:33:14.296Z,40.22
2018-03-23T22:35:41.740Z,48.37
2018-03-23T22:38:09.214Z,43.03
2018-03-23T22:40:36.991Z,38.43
2018-03-23T22:43:05.973Z,39.88
2018-03-23T22:45:47.603Z,39.80
2018-03-23T22:48:15.148Z,39.77
2018-03-23T22:50:42.789Z,43.17
2018-03-23T22:53:10.412Z,37.40
2018-03-23T22:55:37.897Z,37.67
2018-03-23T22:58:06.205Z,34.30
2018-03-23T23:00:33.893Z,34.47
2018-03-23T23:03:01.501Z,38.85
2018-03-23T23:05:28.961Z,34.33
2018-03-23T23:07:56.441Z,32.43
2018-03-23T23:10:25.501Z,34.67
2018-03-23T23:12:53.697Z,36.00
2018-03-23T23:15:21.217Z,32.70
2018-03-23T23:17:48.751Z,35.20
2018-03-23T23:20:16.238Z,33.10
2018-03-23T23:22:44.049Z,32.47
2018-03-23T23:25:12.448Z,32.73
2018-03-23T23:27:40.164Z,35.13
2018-03-23T23:30:07.687Z,29.27
2018-03-23T23:32:35.166Z,29.23
2018-03-23T23:35:02.882Z,36.33
2018-03-23T23:37:30.438Z,34.20
2018-03-23T23:39:57.971Z,31.77
2018-03-23T23:42:26.369Z,31.70
2018-03-23T23:44:53.818Z,36.17
2018-03-23T23:47:21.253Z,35.67
2018-03-23T23:49:48.782Z,38.17
2018-03-23T23:52:16.328Z,38.37
2018-03-23T23:54:44.052Z,36.07
2018-03-23T23:57:11.649Z,36.60
2018-03-23T23:59:40.843Z,35.63
